Terminal Aerodrome Forecast
Issued by NWS

Home | Current Version | Previous Version | Text Only | Print | Product List | Glossary On
Versions: 1 2 3 4 5 6 7 8 9 10 11 12 13 14 15 16 17 18 19 20
496
FTUS46 KMFR 191723
TAFRBG
TAF
KRBG 191723Z 1918/2018 16005KT P6SM -SHRA BKN040
     FM200400 16003KT 5SM -SHRA BR OVC020
     FM201400 15001KT 2SM BR OVC010
     FM201700 15001KT 4SM BR OVC020=

USA.gov is the U.S. government's official web portal to all federal, state and local government web resources and services.